createdAt,value
2019-04-10T00:02:10.634Z,86.10
2019-04-10T00:04:59.168Z,85.90
2019-04-10T00:07:47.977Z,87.30
2019-04-10T00:10:36.536Z,90.10
2019-04-10T00:13:24.759Z,88.80
2019-04-10T00:16:13.930Z,88.70
2019-04-10T00:19:02.402Z,89.60
2019-04-10T00:21:51.327Z,89.60
2019-04-10T00:24:39.905Z,88.50
2019-04-10T00:27:28.451Z,87.80
2019-04-10T00:30:16.771Z,86.80
2019-04-10T00:33:04.806Z,88.70
2019-04-10T00:35:52.634Z,88.30
2019-04-10T00:38:42.129Z,88.70
2019-04-10T00:41:30.919Z,89.30
2019-04-10T00:44:19.441Z,90.20
2019-04-10T00:47:07.641Z,90.80
2019-04-10T00:49:55.969Z,91.20
2019-04-10T00:52:44.214Z,90.20
2019-04-10T00:55:32.818Z,90.30
2019-04-10T00:58:22.527Z,90.60
2019-04-10T01:01:11.751Z,91.00
2019-04-10T01:04:00.593Z,90.80
2019-04-10T01:06:48.749Z,91.10
2019-04-10T01:09:37.508Z,90.80
2019-04-10T01:12:25.864Z,90.60
2019-04-10T01:15:14.164Z,90.70
2019-04-10T01:18:02.763Z,90.80
2019-04-10T01:20:51.259Z,90.30
2019-04-10T01:23:39.404Z,91.00
2019-04-10T01:26:28.245Z,91.50
2019-04-10T01:29:17.574Z,91.10
2019-04-10T01:32:07.691Z,90.80
2019-04-10T01:34:56.274Z,90.80
2019-04-10T01:37:51.916Z,91.10
2019-04-10T01:40:35.249Z,91.20
2019-04-10T01:43:23.297Z,91.10
2019-04-10T01:46:12.058Z,91.50
2019-04-10T01:49:00.426Z,92.10
2019-04-10T01:51:48.471Z,93.30
2019-04-10T01:54:37.405Z,93.30
2019-04-10T01:57:25.620Z,93.00
2019-04-10T02:00:17.616Z,93.10
2019-04-10T02:03:05.818Z,92.80
2019-04-10T02:05:54.732Z,92.50
2019-04-10T02:08:43.096Z,93.00
2019-04-10T02:11:30.906Z,92.00
2019-04-10T02:14:20.414Z,91.00
2019-04-10T02:17:09.033Z,90.70
2019-04-10T02:19:56.910Z,90.90
2019-04-10T02:22:45.853Z,91.70
2019-04-10T02:25:34.338Z,93.00
2019-04-10T02:28:22.771Z,92.80
2019-04-10T02:31:12.567Z,92.90
2019-04-10T02:34:01.582Z,92.40
2019-04-10T02:36:50.797Z,91.70
2019-04-10T02:39:45.813Z,91.40
2019-04-10T02:42:30.221Z,91.00
2019-04-10T02:45:19.135Z,91.40
2019-04-10T02:48:08.558Z,91.70
2019-04-10T02:50:57.634Z,92.50
2019-04-10T02:53:48.018Z,92.80
2019-04-10T02:56:36.657Z,92.60
2019-04-10T02:59:25.154Z,91.90
2019-04-10T03:02:14.034Z,91.90
2019-04-10T03:05:02.697Z,92.10
2019-04-10T03:07:52.450Z,91.80
2019-04-10T03:10:48.775Z,91.90
2019-04-10T03:13:31.201Z,92.10
2019-04-10T03:16:19.893Z,92.30
2019-04-10T03:19:09.294Z,92.50
2019-04-10T03:21:57.933Z,92.80
2019-04-10T03:24:46.541Z,92.20
2019-04-10T03:27:35.187Z,92.50
2019-04-10T03:30:23.739Z,92.70
2019-04-10T03:33:32.371Z,92.20
2019-04-10T03:36:17.752Z,93.10
2019-04-10T03:39:09.326Z,93.00
2019-04-10T03:41:58.759Z,92.80
2019-04-10T03:47:41.832Z,93.70
2019-04-10T03:50:30.159Z,93.50
2019-04-10T03:53:18.161Z,93.30
2019-04-10T03:56:07.559Z,93.40
2019-04-10T03:58:56.459Z,93.00
2019-04-10T04:01:44.455Z,92.40
2019-04-10T04:04:33.341Z,92.20
2019-04-10T04:07:24.602Z,92.30
2019-04-10T04:10:13.488Z,92.60
2019-04-10T04:13:01.640Z,92.50
2019-04-10T04:15:50.592Z,92.60
2019-04-10T04:18:39.419Z,91.90
2019-04-10T04:21:29.901Z,90.90
2019-04-10T04:24:21.146Z,89.70
2019-04-10T04:27:08.971Z,90.30
2019-04-10T04:29:57.473Z,90.10
2019-04-10T04:32:48.770Z,90.10
2019-04-10T04:38:53.903Z,88.20
2019-04-10T04:41:52.489Z,89.40
2019-04-10T04:44:41.120Z,90.30
2019-04-10T04:47:29.093Z,90.20
2019-04-10T04:50:17.844Z,90.50
2019-04-10T04:53:06.537Z,90.60
2019-04-10T04:55:55.530Z,90.20
2019-04-10T04:58:43.586Z,90.10
2019-04-10T05:01:31.834Z,90.30
2019-04-10T05:04:20.323Z,90.30
2019-04-10T05:07:08.375Z,90.20
2019-04-10T05:09:59.882Z,90.40
2019-04-10T05:12:46.410Z,90.40
2019-04-10T05:15:35.389Z,90.50
2019-04-10T05:18:23.728Z,90.70
2019-04-10T05:21:12.734Z,90.60
2019-04-10T05:24:01.410Z,91.00
2019-04-10T05:26:49.184Z,90.90
2019-04-10T05:29:37.075Z,90.10
2019-04-10T05:32:28.486Z,90.00
2019-04-10T05:35:17.266Z,90.50
2019-04-10T05:38:05.819Z,90.40
2019-04-10T05:40:55.060Z,90.10
2019-04-10T05:43:44.764Z,88.90
2019-04-10T05:46:33.615Z,88.90
2019-04-10T05:49:22.537Z,88.40
2019-04-10T05:52:11.260Z,88.50
2019-04-10T05:55:00.010Z,88.10
2019-04-10T05:57:49.008Z,89.20
2019-04-10T06:00:41.012Z,89.20
2019-04-10T06:03:30.254Z,88.50
2019-04-10T06:06:19.977Z,89.20
2019-04-10T06:09:09.326Z,88.60
2019-04-10T06:11:57.411Z,86.10
2019-04-10T06:14:46.295Z,86.20
2019-04-10T06:17:34.708Z,86.20
2019-04-10T06:20:23.143Z,87.60
2019-04-10T06:23:11.524Z,87.50
2019-04-10T06:26:00.513Z,86.70
2019-04-10T06:28:48.992Z,86.00
2019-04-10T06:31:39.044Z,85.60
2019-04-10T06:34:26.927Z,84.80
2019-04-10T06:37:15.730Z,84.60
2019-04-10T06:40:12.991Z,84.20
2019-04-10T06:42:56.509Z,83.50
2019-04-10T06:45:44.548Z,82.80
2019-04-10T06:48:34.104Z,83.10
2019-04-10T06:51:22.418Z,81.30
2019-04-10T06:54:11.761Z,80.70
2019-04-10T06:57:02.767Z,79.90
2019-04-10T06:59:52.347Z,79.10
2019-04-10T07:02:41.089Z,80.80
2019-04-10T07:05:37.982Z,78.40
2019-04-10T07:08:23.930Z,77.80
2019-04-10T07:11:13.531Z,80.80
2019-04-10T07:14:01.645Z,81.30
2019-04-10T07:16:50.766Z,81.00
2019-04-10T07:19:41.428Z,83.30
2019-04-10T07:22:28.984Z,84.60
2019-04-10T07:25:17.055Z,85.30
2019-04-10T07:28:07.400Z,85.70
2019-04-10T07:30:59.439Z,86.60
2019-04-10T07:33:48.704Z,83.50
2019-04-10T07:36:34.921Z,80.40
2019-04-10T07:39:26.005Z,78.40
2019-04-10T07:42:25.741Z,78.00
2019-04-10T07:45:15.952Z,76.50
2019-04-10T07:48:04.586Z,74.80
2019-04-10T07:50:53.603Z,73.80
2019-04-10T07:53:43.494Z,77.00
2019-04-10T07:56:31.889Z,75.40
2019-04-10T07:59:20.561Z,73.70
2019-04-10T08:02:10.147Z,70.50
2019-04-10T08:04:58.466Z,69.40
2019-04-10T08:07:47.255Z,67.40
2019-04-10T08:10:36.812Z,68.60
2019-04-10T08:13:26.718Z,72.00
2019-04-10T08:16:15.356Z,70.60
2019-04-10T08:19:04.087Z,66.10
2019-04-10T08:21:52.767Z,67.50
2019-04-10T08:24:41.369Z,65.00
2019-04-10T08:27:29.922Z,65.60
2019-04-10T08:30:18.131Z,67.90
2019-04-10T08:33:06.326Z,68.40
2019-04-10T08:35:54.801Z,63.60
2019-04-10T08:38:43.222Z,64.30
2019-04-10T08:41:31.740Z,63.40
2019-04-10T08:44:22.144Z,65.00
2019-04-10T08:47:11.052Z,66.60
2019-04-10T08:49:59.532Z,64.70
2019-04-10T08:52:47.167Z,62.60
2019-04-10T08:55:35.829Z,63.70
2019-04-10T08:58:24.978Z,61.40
2019-04-10T09:01:13.583Z,62.10
2019-04-10T09:04:01.550Z,61.70
2019-04-10T09:06:49.534Z,61.30
2019-04-10T09:09:38.171Z,60.60
2019-04-10T09:12:26.339Z,58.30
2019-04-10T09:15:14.331Z,59.30
2019-04-10T09:18:02.633Z,58.70
2019-04-10T09:20:51.018Z,59.70
2019-04-10T09:23:45.588Z,60.40
2019-04-10T09:26:28.978Z,60.80
2019-04-10T09:29:18.169Z,59.80
2019-04-10T09:37:42.102Z,59.60
2019-04-10T09:43:18.355Z,55.20
2019-04-10T09:51:42.462Z,53.40
2019-04-10T09:57:20.114Z,51.50
2019-04-10T10:00:10.403Z,51.50
2019-04-10T10:02:59.372Z,53.60
2019-04-10T10:05:47.412Z,54.20
2019-04-10T10:08:35.988Z,56.30
2019-04-10T10:11:24.297Z,56.60
2019-04-10T10:14:12.566Z,56.80
2019-04-10T10:19:48.434Z,56.40
2019-04-10T10:22:37.056Z,55.10
2019-04-10T10:25:26.913Z,57.20
2019-04-10T10:50:49.828Z,58.50
2019-04-10T10:53:38.656Z,58.40
2019-04-10T10:56:26.655Z,56.60
2019-04-10T10:59:15.519Z,57.40
2019-04-10T11:02:04.382Z,57.70
2019-04-10T11:04:53.876Z,56.30
2019-04-10T11:07:42.904Z,57.00
2019-04-10T11:10:33.720Z,56.10
2019-04-10T11:13:22.597Z,55.20
2019-04-10T11:16:12.952Z,55.70
2019-04-10T11:19:00.668Z,55.70
2019-04-10T11:21:49.672Z,55.10
2019-04-10T11:24:38.253Z,56.00
2019-04-10T11:27:28.410Z,56.60
2019-04-10T11:30:18.351Z,56.20
2019-04-10T11:33:06.630Z,55.90
2019-04-10T11:35:57.295Z,54.40
2019-04-10T11:38:46.495Z,54.40
2019-04-10T11:41:35.081Z,53.50
2019-04-10T11:44:24.915Z,52.40
2019-04-10T11:47:14.860Z,53.00
2019-04-10T11:50:05.995Z,51.80
2019-04-10T11:52:54.117Z,51.60
2019-04-10T11:58:33.714Z,53.20
2019-04-10T12:01:24.559Z,53.40
2019-04-10T12:04:13.950Z,52.70
2019-04-10T12:07:02.087Z,52.10
2019-04-10T12:12:41.705Z,52.90
2019-04-10T12:15:30.339Z,52.00
2019-04-10T12:18:18.367Z,51.50
2019-04-10T12:21:07.352Z,52.30
2019-04-10T12:23:56.868Z,52.00
2019-04-10T12:26:46.110Z,52.10
2019-04-10T12:29:35.000Z,52.10
2019-04-10T12:32:23.575Z,51.90
2019-04-10T12:38:08.102Z,52.50
2019-04-10T13:06:07.700Z,53.70
2019-04-10T14:44:57.687Z,51.60
2019-04-10T14:47:46.235Z,52.40
2019-04-10T14:50:34.139Z,51.90
2019-04-10T14:53:22.752Z,51.60
2019-04-10T14:56:11.584Z,52.80
2019-04-10T14:59:01.018Z,53.10
2019-04-10T15:01:50.310Z,53.50
2019-04-10T15:04:39.442Z,53.10
2019-04-10T15:07:28.890Z,52.10
2019-04-10T15:10:16.971Z,52.30
2019-04-10T15:13:10.264Z,52.10
2019-04-10T15:15:54.748Z,50.60
2019-04-10T15:18:43.716Z,50.70
2019-04-10T15:21:32.214Z,51.20
2019-04-10T15:24:21.548Z,51.30
2019-04-10T15:27:11.067Z,51.70
2019-04-10T15:29:59.940Z,51.60
2019-04-10T15:32:47.670Z,50.40
2019-04-10T15:35:35.825Z,50.20
2019-04-10T15:38:24.116Z,50.70
2019-04-10T15:41:12.833Z,50.90
2019-04-10T15:44:01.511Z,51.90
2019-04-10T15:46:49.767Z,51.60
2019-04-10T15:49:38.733Z,51.10
2019-04-10T15:52:27.335Z,51.10
2019-04-10T15:55:15.487Z,50.50
2019-04-10T15:58:05.019Z,50.90
2019-04-10T16:03:47.253Z,49.90
2019-04-10T16:06:35.560Z,49.60
2019-04-10T16:09:25.228Z,50.60
2019-04-10T16:12:18.630Z,50.50
2019-04-10T16:15:07.651Z,50.10
2019-04-10T16:18:07.206Z,50.10
2019-04-10T16:20:55.925Z,49.10
2019-04-10T16:23:49.631Z,49.60
2019-04-10T16:26:37.663Z,50.50
2019-04-10T16:29:26.667Z,49.90
2019-04-10T16:32:16.840Z,50.00
2019-04-10T16:35:05.545Z,49.80
2019-04-10T16:37:53.806Z,49.30
2019-04-10T16:40:41.474Z,49.40
2019-04-10T16:43:30.602Z,48.70
2019-04-10T16:46:20.328Z,48.70
2019-04-10T16:49:10.657Z,48.90
2019-04-10T16:51:58.842Z,48.60
2019-04-10T16:54:49.979Z,48.90
2019-04-10T16:57:38.811Z,49.60
2019-04-10T17:00:29.089Z,50.60
2019-04-10T17:03:18.217Z,50.10
2019-04-10T17:06:10.091Z,50.00
2019-04-10T17:08:58.480Z,49.90
2019-04-10T17:11:47.323Z,49.60
2019-04-10T17:14:37.738Z,49.50
2019-04-10T17:17:26.690Z,49.90
2019-04-10T17:20:15.987Z,50.10
2019-04-10T17:23:04.893Z,50.80
2019-04-10T17:25:54.721Z,50.80
2019-04-10T17:28:42.750Z,50.70
2019-04-10T17:31:31.232Z,50.40
2019-04-10T17:34:20.797Z,50.20
2019-04-10T17:37:09.921Z,50.50
2019-04-10T17:39:59.745Z,51.10
2019-04-10T17:42:48.571Z,51.00
2019-04-10T17:45:36.457Z,52.40
2019-04-10T17:48:25.833Z,50.80
2019-04-10T17:51:14.573Z,50.60
2019-04-10T17:54:04.206Z,51.20
2019-04-10T17:56:54.772Z,51.60
2019-04-10T17:59:44.802Z,51.30
2019-04-10T18:02:41.064Z,51.10
2019-04-10T18:08:26.679Z,50.90
2019-04-10T18:11:14.266Z,51.10
2019-04-10T18:14:03.169Z,50.80
2019-04-10T18:16:52.062Z,50.20
2019-04-10T18:19:42.019Z,50.20
2019-04-10T18:22:30.908Z,51.10
2019-04-10T18:25:20.174Z,51.20
2019-04-10T18:28:09.494Z,52.00
2019-04-10T18:30:58.628Z,50.70
2019-04-10T18:33:47.528Z,50.90
2019-04-10T18:36:36.371Z,51.60
2019-04-10T18:39:24.578Z,51.60
2019-04-10T18:42:14.902Z,51.30
2019-04-10T18:45:03.722Z,51.50
2019-04-10T18:47:52.373Z,51.30
2019-04-10T18:50:40.902Z,51.40
2019-04-10T18:56:25.055Z,52.80
2019-04-10T18:59:18.472Z,52.60
2019-04-10T19:02:37.435Z,52.50
2019-04-10T19:08:26.003Z,52.90
2019-04-10T19:11:29.676Z,52.60
2019-04-10T19:14:08.256Z,52.40
2019-04-10T19:16:56.751Z,51.80
2019-04-10T19:20:05.889Z,52.20
2019-04-10T19:22:56.811Z,52.40
2019-04-10T19:25:49.138Z,52.00
2019-04-10T19:28:43.440Z,52.70
2019-04-10T19:31:56.369Z,53.20
2019-04-10T19:34:54.849Z,53.20
2019-04-10T19:37:45.827Z,53.00
2019-04-10T19:40:38.340Z,52.90
2019-04-10T19:43:34.656Z,52.20
2019-04-10T19:46:23.814Z,52.40
2019-04-10T19:49:14.560Z,52.90
2019-04-10T19:52:04.483Z,52.60
2019-04-10T19:54:55.470Z,52.90
2019-04-10T19:57:45.656Z,53.10
2019-04-10T20:00:36.789Z,53.00
2019-04-10T20:03:27.889Z,53.10
2019-04-10T20:06:18.452Z,53.80
2019-04-10T20:09:20.027Z,53.30
2019-04-10T20:12:12.696Z,53.30
2019-04-10T20:15:02.467Z,53.00
2019-04-10T20:17:52.482Z,53.30
2019-04-10T20:20:42.075Z,53.10
2019-04-10T20:23:32.079Z,53.30
2019-04-10T20:26:21.627Z,54.40
2019-04-10T20:29:13.247Z,54.50
2019-04-10T20:32:02.278Z,54.30
2019-04-10T20:34:55.889Z,54.80
2019-04-10T20:37:49.123Z,55.40
2019-04-10T20:40:38.485Z,55.20
2019-04-10T20:43:33.768Z,55.00
2019-04-10T20:46:22.826Z,54.90
2019-04-10T20:49:12.118Z,55.60
2019-04-10T20:52:01.979Z,55.20
2019-04-10T20:54:51.122Z,55.60
2019-04-10T20:57:39.848Z,54.90
2019-04-10T21:00:32.658Z,54.50
2019-04-10T21:03:21.154Z,54.70
2019-04-10T21:06:09.075Z,55.10
2019-04-10T21:08:57.315Z,55.00
2019-04-10T21:11:58.805Z,55.20
2019-04-10T21:14:35.928Z,55.50
2019-04-10T21:17:24.849Z,54.90
2019-04-10T21:20:13.706Z,54.60
2019-04-10T21:23:01.955Z,55.00
2019-04-10T21:25:50.344Z,54.90
2019-04-10T21:28:39.267Z,54.40
2019-04-10T21:31:48.244Z,54.00
2019-04-10T21:34:47.202Z,54.50
2019-04-10T21:37:35.112Z,54.90
2019-04-10T21:40:22.919Z,54.30
2019-04-10T21:43:12.197Z,54.80
2019-04-10T21:46:00.565Z,55.10
2019-04-10T21:48:49.334Z,55.20
2019-04-10T21:51:37.459Z,55.30
2019-04-10T21:54:27.016Z,56.10
2019-04-10T21:57:16.080Z,55.90
2019-04-10T22:00:04.661Z,56.20
2019-04-10T22:02:52.498Z,55.70
2019-04-10T22:05:41.754Z,55.10
2019-04-10T22:08:35.768Z,55.00
2019-04-10T22:11:25.333Z,54.00
2019-04-10T22:14:14.968Z,54.30
2019-04-10T22:17:04.531Z,54.40
2019-04-10T22:19:52.902Z,55.20
2019-04-10T22:22:40.750Z,55.20
2019-04-10T22:25:29.734Z,54.50
2019-04-10T22:28:19.044Z,55.00
2019-04-10T22:31:07.418Z,55.50
2019-04-10T22:33:56.566Z,55.60
2019-04-10T22:36:45.217Z,56.00
2019-04-10T22:39:33.608Z,55.60
2019-04-10T22:42:34.795Z,55.70
2019-04-10T22:48:18.879Z,55.90
2019-04-10T22:51:08.459Z,55.70
2019-04-10T22:53:57.718Z,55.30
2019-04-10T22:56:46.307Z,55.50
2019-04-10T22:59:34.879Z,55.70
2019-04-10T23:02:23.528Z,56.10
2019-04-10T23:05:12.052Z,57.00
2019-04-10T23:07:59.709Z,57.00
2019-04-10T23:10:48.896Z,56.60
2019-04-10T23:13:38.289Z,55.80
2019-04-10T23:16:26.704Z,56.00
2019-04-10T23:19:14.395Z,56.40
2019-04-10T23:22:03.091Z,56.50
2019-04-10T23:24:51.906Z,56.70
2019-04-10T23:27:40.349Z,56.30
2019-04-10T23:30:29.030Z,57.50
2019-04-10T23:33:17.802Z,57.50
2019-04-10T23:36:05.922Z,57.50
2019-04-10T23:38:55.518Z,58.00
2019-04-10T23:41:43.827Z,57.70
2019-04-10T23:44:33.155Z,58.30
2019-04-10T23:47:22.877Z,58.20
2019-04-10T23:50:12.151Z,57.60
2019-04-10T23:53:00.582Z,57.30
2019-04-10T23:55:48.390Z,57.50
2019-04-10T23:58:36.046Z,57.70
